createdAt,value
2019-03-08T00:02:19.009Z,2.83
2019-03-08T00:04:49.783Z,2.60
2019-03-08T00:07:20.280Z,2.77
2019-03-08T00:09:51.197Z,2.60
2019-03-08T00:12:21.673Z,2.80
2019-03-08T00:14:52.805Z,2.50
2019-03-08T00:17:23.545Z,2.58
2019-03-08T00:19:54.169Z,2.37
2019-03-08T00:22:24.698Z,2.53
2019-03-08T00:24:56.996Z,2.60
2019-03-08T00:27:27.679Z,2.30
2019-03-08T00:29:59.904Z,2.57
2019-03-08T00:32:30.661Z,2.03
2019-03-08T00:35:01.322Z,2.00
2019-03-08T00:37:31.823Z,2.00
2019-03-08T00:40:02.947Z,2.20
2019-03-08T00:42:33.681Z,1.90
2019-03-08T00:45:04.483Z,1.93
2019-03-08T00:47:36.831Z,1.90
2019-03-08T00:50:07.752Z,1.80
2019-03-08T00:52:38.571Z,2.10
2019-03-08T00:55:09.173Z,2.30
2019-03-08T00:57:42.693Z,2.30
2019-03-08T01:00:16.725Z,2.33
2019-03-08T01:02:47.536Z,2.50
2019-03-08T01:05:18.735Z,1.90
2019-03-08T01:07:49.188Z,2.20
2019-03-08T01:10:21.311Z,2.12
2019-03-08T01:12:51.795Z,2.10
2019-03-08T01:15:22.280Z,2.00
2019-03-08T01:17:52.938Z,2.03
2019-03-08T01:20:23.693Z,2.13
2019-03-08T01:22:54.370Z,2.17
2019-03-08T01:25:25.242Z,2.20
2019-03-08T01:28:10.364Z,2.20
2019-03-08T01:30:41.293Z,2.13
2019-03-08T01:33:13.319Z,1.85
2019-03-08T01:35:43.916Z,2.00
2019-03-08T01:38:14.501Z,2.10
2019-03-08T01:40:45.711Z,2.00
2019-03-08T01:43:16.278Z,2.10
2019-03-08T01:45:46.740Z,2.27
2019-03-08T01:48:17.129Z,2.00
2019-03-08T01:50:48.979Z,2.20
2019-03-08T01:53:19.426Z,2.20
2019-03-08T01:55:50.521Z,1.83
2019-03-08T01:58:20.907Z,2.20
2019-03-08T02:00:51.761Z,2.17
2019-03-08T02:03:22.293Z,2.00
2019-03-08T02:05:52.998Z,2.00
2019-03-08T02:08:23.594Z,1.93
2019-03-08T02:10:54.079Z,2.37
2019-03-08T02:13:27.271Z,2.07
2019-03-08T02:15:58.189Z,2.00
2019-03-08T02:18:28.649Z,2.20
2019-03-08T02:21:06.456Z,2.30
2019-03-08T02:23:31.346Z,2.20
2019-03-08T02:26:01.728Z,2.17
2019-03-08T02:28:32.402Z,2.20
2019-03-08T02:31:03.083Z,2.00
2019-03-08T02:33:34.473Z,2.37
2019-03-08T02:36:05.876Z,2.40
2019-03-08T02:38:36.390Z,2.20
2019-03-08T02:41:07.019Z,2.20
2019-03-08T02:43:37.518Z,2.20
2019-03-08T02:46:08.164Z,2.37
2019-03-08T02:48:38.696Z,2.40
2019-03-08T02:51:09.163Z,2.30
2019-03-08T02:53:39.641Z,2.30
2019-03-08T02:56:10.477Z,2.30
2019-03-08T02:58:41.009Z,2.40
2019-03-08T03:01:13.302Z,2.72
2019-03-08T03:03:43.786Z,2.67
2019-03-08T03:06:14.290Z,2.87
2019-03-08T03:08:45.393Z,2.23
2019-03-08T03:11:15.879Z,2.30
2019-03-08T03:13:46.392Z,2.50
2019-03-08T03:16:17.101Z,2.13
2019-03-08T03:18:47.590Z,2.03
2019-03-08T03:21:18.258Z,2.20
2019-03-08T03:23:48.943Z,2.00
2019-03-08T03:26:19.679Z,1.77
2019-03-08T03:28:50.604Z,1.53
2019-03-08T03:31:20.977Z,1.93
2019-03-08T03:33:51.539Z,1.70
2019-03-08T03:36:22.185Z,1.70
2019-03-08T03:38:52.694Z,1.50
2019-03-08T03:41:23.724Z,1.63
2019-03-08T03:43:54.218Z,1.67
2019-03-08T03:46:24.790Z,1.90
2019-03-08T03:48:56.710Z,1.80
2019-03-08T03:51:27.749Z,1.80
2019-03-08T03:53:58.533Z,1.50
2019-03-08T03:56:30.557Z,1.70
2019-03-08T03:59:01.182Z,1.83
2019-03-08T04:01:38.511Z,1.65
2019-03-08T04:04:08.959Z,1.70
2019-03-08T04:06:39.513Z,1.70
2019-03-08T04:09:13.676Z,1.80
2019-03-08T04:11:44.260Z,1.80
2019-03-08T04:14:14.869Z,1.73
2019-03-08T04:16:45.582Z,2.00
2019-03-08T04:19:17.221Z,1.93
2019-03-08T04:21:47.696Z,1.80
2019-03-08T04:24:18.738Z,2.60
2019-03-08T04:26:49.586Z,2.03
2019-03-08T04:29:20.050Z,1.95
2019-03-08T04:31:50.719Z,2.30
2019-03-08T04:34:21.267Z,2.37
2019-03-08T04:36:51.825Z,2.17
2019-03-08T04:39:22.460Z,1.95
2019-03-08T04:41:53.048Z,2.30
2019-03-08T04:44:23.868Z,1.97
2019-03-08T04:46:54.700Z,2.20
2019-03-08T04:49:26.236Z,2.07
2019-03-08T04:51:57.849Z,1.90
2019-03-08T04:54:28.341Z,2.17
2019-03-08T04:56:59.195Z,1.50
2019-03-08T04:59:29.821Z,2.27
2019-03-08T05:02:01.609Z,2.10
2019-03-08T05:04:32.298Z,1.80
2019-03-08T05:07:02.794Z,1.70
2019-03-08T05:09:33.572Z,2.00
2019-03-08T05:12:04.235Z,1.77
2019-03-08T05:14:35.057Z,1.70
2019-03-08T05:17:06.145Z,1.72
2019-03-08T05:19:36.847Z,1.90
2019-03-08T05:22:07.235Z,1.60
2019-03-08T05:24:37.860Z,1.70
2019-03-08T05:27:09.229Z,2.00
2019-03-08T05:29:42.340Z,2.40
2019-03-08T05:32:14.564Z,2.00
2019-03-08T05:34:45.007Z,2.23
2019-03-08T05:37:15.847Z,2.10
2019-03-08T05:39:46.248Z,2.10
2019-03-08T05:42:16.846Z,2.20
2019-03-08T05:44:47.608Z,2.13
2019-03-08T05:47:18.262Z,1.87
2019-03-08T05:49:48.954Z,1.93
2019-03-08T05:52:19.662Z,1.90
2019-03-08T05:54:50.356Z,1.73
2019-03-08T05:57:21.699Z,1.85
2019-03-08T05:59:54.489Z,2.17
2019-03-08T06:02:24.988Z,1.80
2019-03-08T06:04:55.554Z,2.00
2019-03-08T06:07:26.286Z,1.97
2019-03-08T06:09:56.895Z,2.10
2019-03-08T06:12:27.641Z,2.00
2019-03-08T06:14:59.205Z,2.00
2019-03-08T06:17:29.576Z,2.12
2019-03-08T06:20:00.248Z,1.80
2019-03-08T06:22:31.085Z,1.90
2019-03-08T06:25:01.528Z,2.00
2019-03-08T06:27:32.234Z,1.80
2019-03-08T06:30:02.970Z,2.20
2019-03-08T06:32:33.738Z,1.80
2019-03-08T06:35:05.942Z,1.90
2019-03-08T06:37:37.156Z,2.50
2019-03-08T06:40:07.730Z,2.30
2019-03-08T06:42:38.295Z,2.17
2019-03-08T06:45:10.288Z,2.30
2019-03-08T06:47:40.690Z,1.93
2019-03-08T06:50:11.975Z,2.30
2019-03-08T06:52:42.358Z,1.63
2019-03-08T06:55:13.059Z,2.07
2019-03-08T06:57:43.568Z,1.77
2019-03-08T07:00:41.349Z,1.70
2019-03-08T07:03:11.977Z,1.60
2019-03-08T07:05:42.676Z,1.97
2019-03-08T07:08:13.698Z,2.00
2019-03-08T07:10:44.382Z,1.90
2019-03-08T07:13:14.910Z,1.80
2019-03-08T07:15:45.261Z,2.00
2019-03-08T07:18:16.141Z,2.07
2019-03-08T07:21:00.512Z,2.00
2019-03-08T07:23:43.993Z,1.70
2019-03-08T07:26:42.492Z,2.00
2019-03-08T07:29:30.742Z,1.67
2019-03-08T07:32:09.295Z,1.43
2019-03-08T07:34:59.160Z,1.57
2019-03-08T07:37:40.296Z,1.30
2019-03-08T07:40:47.667Z,1.55
2019-03-08T07:43:51.911Z,1.57
2019-03-08T07:46:59.767Z,1.53
2019-03-08T07:49:39.554Z,1.63
2019-03-08T07:52:19.531Z,2.00
2019-03-08T07:54:56.049Z,1.80
2019-03-08T07:57:37.281Z,1.77
2019-03-08T08:00:17.262Z,1.87
2019-03-08T08:03:06.873Z,1.90
2019-03-08T08:05:47.178Z,2.30
2019-03-08T08:08:51.677Z,1.93
2019-03-08T08:11:31.540Z,1.83
2019-03-08T08:14:19.243Z,1.70
2019-03-08T08:17:17.435Z,1.80
2019-03-08T08:20:05.399Z,1.60
2019-03-08T08:22:57.459Z,2.30
2019-03-08T08:25:56.553Z,1.97
2019-03-08T08:28:35.760Z,2.07
2019-03-08T08:31:31.386Z,1.70
2019-03-08T08:34:29.507Z,1.60
2019-03-08T08:37:12.923Z,1.90
2019-03-08T08:40:02.649Z,1.97
2019-03-08T08:42:58.487Z,1.57
2019-03-08T08:45:50.593Z,1.60
2019-03-08T08:48:45.958Z,1.90
2019-03-08T08:51:24.478Z,1.90
2019-03-08T08:54:08.797Z,2.07
2019-03-08T08:56:58.163Z,1.60
2019-03-08T08:59:57.089Z,1.83
2019-03-08T09:02:49.445Z,1.70
2019-03-08T09:05:50.846Z,1.67
2019-03-08T09:08:49.738Z,1.65
2019-03-08T09:11:24.687Z,1.97
2019-03-08T09:14:26.658Z,1.90
2019-03-08T09:17:25.441Z,1.80
2019-03-08T09:20:14.820Z,2.07
2019-03-08T09:22:58.264Z,1.73
2019-03-08T09:26:03.009Z,1.80
2019-03-08T09:28:52.480Z,1.80
2019-03-08T09:31:40.664Z,1.50
2019-03-08T09:34:29.217Z,1.67
2019-03-08T09:37:34.115Z,2.00
2019-03-08T09:40:24.031Z,1.33
2019-03-08T09:43:28.448Z,1.85
2019-03-08T09:46:26.606Z,1.70
2019-03-08T09:49:25.279Z,1.40
2019-03-08T09:52:21.254Z,1.57
2019-03-08T09:55:11.174Z,1.50
2019-03-08T09:57:55.839Z,1.60
2019-03-08T10:00:47.905Z,1.60
2019-03-08T10:03:41.648Z,1.63
2019-03-08T10:06:27.860Z,1.60
2019-03-08T10:09:16.298Z,1.40
2019-03-08T10:12:13.010Z,1.70
2019-03-08T10:15:01.698Z,1.60
2019-03-08T10:17:52.411Z,1.60
2019-03-08T10:20:42.132Z,1.80
2019-03-08T10:23:34.527Z,1.50
2019-03-08T10:26:23.485Z,1.50
2019-03-08T10:29:16.116Z,1.40
2019-03-08T10:32:20.758Z,1.53
2019-03-08T10:35:23.302Z,1.60
2019-03-08T10:37:59.971Z,1.70
2019-03-08T10:40:49.274Z,1.67
2019-03-08T10:43:44.514Z,1.70
2019-03-08T10:46:32.806Z,1.70
2019-03-08T10:49:17.850Z,1.63
2019-03-08T10:52:04.033Z,1.90
2019-03-08T10:54:54.122Z,1.70
2019-03-08T10:57:48.600Z,1.70
2019-03-08T11:00:35.035Z,1.70
2019-03-08T11:03:40.228Z,1.67
2019-03-08T11:06:26.090Z,1.80
2019-03-08T11:09:21.403Z,1.97
2019-03-08T11:12:13.749Z,1.70
2019-03-08T11:15:02.986Z,2.00
2019-03-08T11:17:50.946Z,2.13
2019-03-08T11:20:39.115Z,1.90
2019-03-08T11:23:18.237Z,2.17
2019-03-08T11:26:10.636Z,1.63
2019-03-08T11:28:52.194Z,2.07
2019-03-08T11:31:35.051Z,1.50
2019-03-08T11:34:30.821Z,1.30
2019-03-08T11:37:20.688Z,1.37
2019-03-08T11:40:13.197Z,1.03
2019-03-08T11:42:50.834Z,1.13
2019-03-08T11:45:49.608Z,1.33
2019-03-08T11:48:30.048Z,1.02
2019-03-08T11:51:22.374Z,1.40
2019-03-08T11:54:09.934Z,1.70
2019-03-08T11:57:02.490Z,1.57
2019-03-08T11:59:49.929Z,1.40
2019-03-08T12:02:41.299Z,1.50
2019-03-08T12:05:30.789Z,1.93
2019-03-08T12:08:11.588Z,2.07
2019-03-08T12:11:08.963Z,1.30
2019-03-08T12:13:51.525Z,1.50
2019-03-08T12:16:40.318Z,1.30
2019-03-08T12:19:29.977Z,1.40
2019-03-08T12:22:35.229Z,1.00
2019-03-08T12:25:25.703Z,1.10
2019-03-08T12:28:14.244Z,1.13
2019-03-08T12:31:04.082Z,1.10
2019-03-08T12:33:52.416Z,1.10
2019-03-08T12:36:39.917Z,1.30
2019-03-08T12:39:23.539Z,1.30
2019-03-08T12:42:09.127Z,1.20
2019-03-08T12:44:49.602Z,1.20
2019-03-08T12:47:37.984Z,1.27
2019-03-08T12:50:20.384Z,1.50
2019-03-08T12:53:09.717Z,1.27
2019-03-08T12:56:17.663Z,1.10
2019-03-08T12:59:05.848Z,1.30
2019-03-08T13:02:12.125Z,1.10
2019-03-08T13:05:10.700Z,1.23
2019-03-08T13:07:50.659Z,1.60
2019-03-08T13:10:21.149Z,1.40
2019-03-08T13:12:51.664Z,1.30
2019-03-08T13:15:22.402Z,1.60
2019-03-08T13:17:52.941Z,1.50
2019-03-08T13:20:23.441Z,1.30
2019-03-08T13:22:53.795Z,1.50
2019-03-08T13:25:24.365Z,1.20
2019-03-08T13:27:54.845Z,1.30
2019-03-08T13:30:25.886Z,1.37
2019-03-08T13:32:56.482Z,1.23
2019-03-08T13:35:27.153Z,1.30
2019-03-08T13:37:58.364Z,1.20
2019-03-08T13:40:29.197Z,1.47
2019-03-08T13:42:59.687Z,1.50
2019-03-08T13:45:30.215Z,1.23
2019-03-08T13:48:01.102Z,1.10
2019-03-08T13:50:32.011Z,1.17
2019-03-08T13:53:03.080Z,1.33
2019-03-08T13:55:34.456Z,1.10
2019-03-08T13:58:06.113Z,1.40
2019-03-08T14:00:36.946Z,1.33
2019-03-08T14:03:07.665Z,1.20
2019-03-08T14:05:39.504Z,1.40
2019-03-08T14:08:10.863Z,1.60
2019-03-08T14:10:41.453Z,1.43
2019-03-08T14:13:12.260Z,2.05
2019-03-08T14:15:42.655Z,1.30
2019-03-08T14:18:13.433Z,1.33
2019-03-08T14:20:44.171Z,1.37
2019-03-08T14:23:14.937Z,1.22
2019-03-08T14:25:46.770Z,1.67
2019-03-08T14:28:17.436Z,1.25
2019-03-08T14:30:58.072Z,1.30
2019-03-08T14:33:28.633Z,1.40
2019-03-08T14:35:59.240Z,1.30
2019-03-08T14:38:37.194Z,1.07
2019-03-08T14:41:30.746Z,1.37
2019-03-08T14:44:31.334Z,1.40
2019-03-08T14:47:19.066Z,1.20
2019-03-08T14:49:50.384Z,1.00
2019-03-08T14:52:21.754Z,1.40
2019-03-08T14:54:53.043Z,1.13
2019-03-08T14:57:27.249Z,1.40
2019-03-08T14:59:56.311Z,1.43
2019-03-08T15:02:26.762Z,1.40
2019-03-08T15:04:57.519Z,1.70
2019-03-08T15:07:29.885Z,2.27
2019-03-08T15:10:02.401Z,1.27
2019-03-08T15:12:33.059Z,1.50
2019-03-08T15:15:07.366Z,1.30
2019-03-08T15:17:39.037Z,1.40
2019-03-08T15:20:15.205Z,1.40
2019-03-08T15:22:43.655Z,1.40
2019-03-08T15:25:14.838Z,1.50
2019-03-08T15:27:45.733Z,1.33
2019-03-08T15:30:17.230Z,1.60
2019-03-08T15:32:48.006Z,1.53
2019-03-08T15:35:18.843Z,1.37
2019-03-08T15:37:50.146Z,1.50
2019-03-08T15:40:21.114Z,1.40
2019-03-08T15:42:51.811Z,1.60
2019-03-08T15:45:22.167Z,1.67
2019-03-08T15:47:52.536Z,1.87
2019-03-08T15:50:23.109Z,2.58
2019-03-08T15:52:53.550Z,3.47
2019-03-08T15:55:24.930Z,3.70
2019-03-08T15:57:55.291Z,2.10
2019-03-08T16:00:25.628Z,2.70
2019-03-08T16:02:56.298Z,3.37
2019-03-08T16:05:28.406Z,2.60
2019-03-08T16:08:01.915Z,1.90
2019-03-08T16:10:33.091Z,2.00
2019-03-08T16:13:03.889Z,4.23
2019-03-08T16:15:36.022Z,1.60
2019-03-08T16:18:06.908Z,2.08
2019-03-08T16:20:38.523Z,1.77
2019-03-08T16:23:11.426Z,1.43
2019-03-08T16:25:47.671Z,1.55
2019-03-08T16:28:14.702Z,1.42
2019-03-08T16:30:47.610Z,2.20
2019-03-08T16:33:25.541Z,1.82
2019-03-08T16:36:34.693Z,2.20
2019-03-08T16:39:34.666Z,1.90
2019-03-08T16:42:23.487Z,2.40
2019-03-08T16:45:22.377Z,2.50
2019-03-08T16:48:07.737Z,2.72
2019-03-08T16:51:05.906Z,2.50
2019-03-08T16:54:00.974Z,2.10
2019-03-08T16:57:00.809Z,1.70
2019-03-08T16:59:48.959Z,1.80
2019-03-08T17:02:47.487Z,1.35
2019-03-08T17:05:39.985Z,1.70
2019-03-08T17:08:30.110Z,1.70
2019-03-08T17:11:16.734Z,3.45
2019-03-08T17:14:21.323Z,1.80
2019-03-08T17:17:03.942Z,1.90
2019-03-08T17:19:40.859Z,1.97
2019-03-08T17:22:29.479Z,2.17
2019-03-08T17:25:11.604Z,2.50
2019-03-08T17:27:51.915Z,2.60
2019-03-08T17:30:33.975Z,2.30
2019-03-08T17:33:32.198Z,2.70
2019-03-08T17:36:21.368Z,3.27
2019-03-08T17:39:03.195Z,3.15
2019-03-08T17:41:48.075Z,3.50
2019-03-08T17:44:36.212Z,3.87
2019-03-08T17:47:16.109Z,4.10
2019-03-08T17:50:11.648Z,4.10
2019-03-08T17:53:05.244Z,4.20
2019-03-08T17:56:01.398Z,4.37
2019-03-08T17:58:50.673Z,4.77
2019-03-08T18:01:42.988Z,5.93
2019-03-08T18:04:37.505Z,5.70
2019-03-08T18:07:35.996Z,5.80
2019-03-08T18:10:27.970Z,6.37
2019-03-08T18:13:16.285Z,6.83
2019-03-08T18:16:23.576Z,7.08
2019-03-08T18:19:13.073Z,8.37
2019-03-08T18:22:02.458Z,7.93
2019-03-08T18:24:54.740Z,8.80
2019-03-08T18:27:44.134Z,8.47
2019-03-08T18:30:45.743Z,9.70
2019-03-08T18:33:24.020Z,9.38
2019-03-08T18:36:25.589Z,9.80
2019-03-08T18:39:15.048Z,10.37
2019-03-08T18:42:03.086Z,10.13
2019-03-08T18:44:58.560Z,16.12
2019-03-08T18:47:58.257Z,11.53
2019-03-08T18:50:50.787Z,10.70
2019-03-08T18:53:55.742Z,11.93
2019-03-08T18:56:47.840Z,12.97
2019-03-08T18:59:46.458Z,12.65
2019-03-08T19:02:39.068Z,13.30
2019-03-08T19:05:19.227Z,14.07
2019-03-08T19:08:09.045Z,12.97
2019-03-08T19:11:10.953Z,13.30
2019-03-08T19:14:11.239Z,13.67
2019-03-08T19:17:12.842Z,14.85
2019-03-08T19:19:59.551Z,15.27
2019-03-08T19:22:48.334Z,16.03
2019-03-08T19:25:31.709Z,16.57
2019-03-08T19:28:24.025Z,17.43
2019-03-08T19:31:13.459Z,15.73
2019-03-08T19:34:00.268Z,16.60
2019-03-08T19:36:52.585Z,18.87
2019-03-08T19:39:40.610Z,19.47
2019-03-08T19:42:36.301Z,17.92
2019-03-08T19:45:26.327Z,17.90
2019-03-08T19:48:06.290Z,19.10
2019-03-08T19:50:55.624Z,18.50
2019-03-08T19:53:42.969Z,19.40
2019-03-08T19:56:30.385Z,18.67
2019-03-08T19:59:08.803Z,19.27
2019-03-08T20:01:52.511Z,19.67
2019-03-08T20:04:43.048Z,19.60
2019-03-08T20:07:38.450Z,19.10
2019-03-08T20:10:26.979Z,20.10
2019-03-08T20:13:10.187Z,20.40
2019-03-08T20:16:02.530Z,20.07
2019-03-08T20:18:50.592Z,19.77
2019-03-08T20:21:55.150Z,20.13
2019-03-08T20:24:50.947Z,18.67
2019-03-08T20:27:58.419Z,19.55
2019-03-08T20:30:56.746Z,19.27
2019-03-08T20:33:58.051Z,21.53
2019-03-08T20:36:46.298Z,21.83
2019-03-08T20:39:24.545Z,21.57
2019-03-08T20:42:09.089Z,20.03
2019-03-08T20:44:57.301Z,19.10
2019-03-08T20:47:30.245Z,19.30
2019-03-08T20:50:00.811Z,17.43
2019-03-08T20:52:32.477Z,19.03
2019-03-08T20:55:02.910Z,18.00
2019-03-08T20:57:33.477Z,16.63
2019-03-08T21:00:04.089Z,16.57
2019-03-08T21:02:35.146Z,16.97
2019-03-08T21:05:06.717Z,16.73
2019-03-08T21:07:37.155Z,16.80
2019-03-08T21:10:08.324Z,15.30
2019-03-08T21:12:38.789Z,16.13
2019-03-08T21:15:11.908Z,16.90
2019-03-08T21:17:42.318Z,16.13
2019-03-08T21:20:13.417Z,15.58
2019-03-08T21:22:44.012Z,16.43
2019-03-08T21:25:15.592Z,17.20
2019-03-08T21:27:47.254Z,18.37
2019-03-08T21:30:18.333Z,16.85
2019-03-08T21:32:49.109Z,16.75
2019-03-08T21:35:20.364Z,18.47
2019-03-08T21:37:50.999Z,18.97
2019-03-08T21:40:21.887Z,20.70
2019-03-08T21:42:52.907Z,20.27
2019-03-08T21:45:24.953Z,21.97
2019-03-08T21:47:56.738Z,21.93
2019-03-08T21:50:27.213Z,22.07
2019-03-08T21:52:58.030Z,23.95
2019-03-08T21:55:28.903Z,22.87
2019-03-08T21:57:59.939Z,21.50
2019-03-08T22:00:31.885Z,20.13
2019-03-08T22:03:02.994Z,21.57
2019-03-08T22:05:35.923Z,21.70
2019-03-08T22:08:06.671Z,23.90
2019-03-08T22:10:54.664Z,22.13
2019-03-08T22:13:25.827Z,21.70
2019-03-08T22:15:56.917Z,19.97
2019-03-08T22:18:27.457Z,23.63
2019-03-08T22:20:58.433Z,22.30
2019-03-08T22:23:31.302Z,26.23
2019-03-08T22:26:02.168Z,25.87
2019-03-08T22:28:32.752Z,21.27
2019-03-08T22:31:03.389Z,26.00
2019-03-08T22:33:33.840Z,19.00
2019-03-08T22:36:04.350Z,20.37
2019-03-08T22:38:37.509Z,17.87
2019-03-08T22:41:07.963Z,21.20
2019-03-08T22:43:38.631Z,18.90
2019-03-08T22:46:09.129Z,16.10
2019-03-08T22:48:41.676Z,17.30
2019-03-08T22:51:11.940Z,15.20
2019-03-08T22:53:45.026Z,15.40
2019-03-08T22:56:17.923Z,12.98
2019-03-08T22:58:50.053Z,12.13
2019-03-08T23:01:25.347Z,11.40
2019-03-08T23:04:00.354Z,8.63
2019-03-08T23:06:34.176Z,8.57
2019-03-08T23:09:10.426Z,7.72
2019-03-08T23:11:41.626Z,7.58
2019-03-08T23:14:14.360Z,7.97
2019-03-08T23:16:45.618Z,6.43
2019-03-08T23:19:17.333Z,7.37
2019-03-08T23:21:49.823Z,6.90
2019-03-08T23:24:21.969Z,6.77
2019-03-08T23:27:11.159Z,6.27
2019-03-08T23:29:55.225Z,6.47
2019-03-08T23:32:32.062Z,7.03
2019-03-08T23:35:03.357Z,6.90
2019-03-08T23:37:35.425Z,7.10
2019-03-08T23:40:06.974Z,7.07
2019-03-08T23:42:38.735Z,7.67
2019-03-08T23:45:11.214Z,7.80
2019-03-08T23:47:42.719Z,8.13
2019-03-08T23:50:14.287Z,7.62
2019-03-08T23:52:45.937Z,7.73
2019-03-08T23:55:18.025Z,7.90
2019-03-08T23:57:49.574Z,8.30
